Time;durP1;ratioP1;P1;durP2;ratioP2;P2;SDS_P1;SDS_P2;PMS_P1;PMS_P2;Temp;Humidity;BMP_temperature;BMP_pressure;BME280_temperature;BME280_humidity;BME280_pressure;Samples;Min_cycle;Max_cycle;Signal;HPM_P1;HPM_P2
2023/08/05 00:02:12;;;;;;;6.18;3.33;;;;;;;-142.75;100.00;76452.19;5087932;28;20601;-64
2023/08/05 00:04:38;;;;;;;6.20;2.88;;;;;;;-142.75;100.00;76450.22;5088291;28;20487;-64
2023/08/05 00:07:03;;;;;;;6.47;2.80;;;;;;;-142.75;100.00;76444.31;5087960;28;20376;-64
2023/08/05 00:09:28;;;;;;;7.10;3.60;;;;;;;-142.75;100.00;76475.81;5087666;28;20093;-64
2023/08/05 00:11:54;;;;;;;6.28;3.03;;;;;;;-142.75;100.00;76452.19;5087180;28;20024;-64
2023/08/05 00:14:19;;;;;;;7.47;3.00;;;;;;;-142.75;100.00;76456.13;5087505;28;20034;-64
2023/08/05 00:16:44;;;;;;;5.32;2.60;;;;;;;-142.75;100.00;76430.53;5087645;28;20034;-63
2023/08/05 00:19:10;;;;;;;8.95;2.90;;;;;;;-142.75;100.00;76424.63;5087463;28;20131;-64
2023/08/05 00:21:35;;;;;;;7.88;2.83;;;;;;;-142.75;100.00;76420.69;5086965;28;20031;-63
2023/08/05 00:24:00;;;;;;;4.88;2.67;;;;;;;-142.75;100.00;76408.88;5087685;28;20639;-63
2023/08/05 00:26:26;;;;;;;5.80;2.92;;;;;;;-142.75;100.00;76412.81;5087228;28;20028;-64
2023/08/05 00:28:51;;;;;;;5.82;2.75;;;;;;;-142.75;100.00;76410.84;5087367;28;20068;-64
2023/08/05 00:31:16;;;;;;;7.20;2.75;;;;;;;-142.75;100.00;76408.88;5087049;28;20049;-64
2023/08/05 00:33:42;;;;;;;7.55;2.97;;;;;;;-142.75;100.00;76416.75;5086683;28;20051;-63
2023/08/05 00:36:07;;;;;;;5.00;3.05;;;;;;;-142.75;100.00;76393.13;5087270;28;20072;-64
2023/08/05 00:38:32;;;;;;;8.57;2.80;;;;;;;-142.75;100.00;76395.09;5087277;28;20096;-64
2023/08/05 00:40:57;;;;;;;6.03;3.08;;;;;;;-142.75;100.00;76401.00;5085930;28;20028;-63
2023/08/05 00:43:23;;;;;;;4.43;2.85;;;;;;;-142.75;100.00;76393.13;5086985;28;20028;-64
2023/08/05 00:45:49;;;;;;;5.90;2.70;;;;;;;-142.75;100.00;76401.00;5087201;28;20031;-64
2023/08/05 00:48:15;;;;;;;6.88;2.55;;;;;;;-142.75;100.00;76389.19;5087146;28;20036;-64
2023/08/05 00:50:40;;;;;;;5.43;2.88;;;;;;;-142.75;100.00;76385.25;5086955;28;20024;-64
2023/08/05 00:53:06;;;;;;;7.75;3.17;;;;;;;-142.75;100.00;76391.16;5086792;28;20032;-64
2023/08/05 00:55:31;;;;;;;6.93;3.30;;;;;;;-142.75;100.00;76408.88;5086963;28;20056;-64
2023/08/05 00:57:57;;;;;;;6.65;3.63;;;;;;;-142.75;100.00;76389.19;5086495;28;20111;-64
2023/08/05 01:00:22;;;;;;;4.05;2.60;;;;;;;-142.75;100.00;76393.13;5087050;28;20028;-64
2023/08/05 01:02:47;;;;;;;8.27;3.30;;;;;;;-142.75;100.00;76401.00;5087535;28;20067;-63
2023/08/05 01:05:14;;;;;;;4.97;3.05;;;;;;;-142.75;100.00;76377.38;5086936;28;20090;-64
2023/08/05 01:07:42;;;;;;;10.45;2.97;;;;;;;-142.75;100.00;76361.63;5086507;28;20016;-63
2023/08/05 01:10:08;;;;;;;4.57;2.72;;;;;;;-142.75;100.00;76351.81;5086958;28;20031;-64
2023/08/05 01:12:33;;;;;;;5.07;2.30;;;;;;;-142.75;100.00;76343.94;5086620;28;20403;-63
2023/08/05 01:14:59;;;;;;;4.03;2.97;;;;;;;-142.75;100.00;76341.97;5087114;28;20036;-63
2023/08/05 01:17:24;;;;;;;4.75;2.80;;;;;;;-142.75;100.00;76330.16;5086677;28;20031;-63
2023/08/05 01:19:50;;;;;;;6.30;2.72;;;;;;;-142.75;100.00;76334.09;5082585;28;20032;-63
2023/08/05 01:22:41;;;;;;;4.60;2.90;;;;;;;-142.75;100.00;76318.34;5066139;28;20089;-63
2023/08/05 01:25:24;;;;;;;5.97;3.05;;;;;;;-142.75;100.00;76316.38;5066818;28;20029;-64
2023/08/05 01:27:50;;;;;;;5.18;2.75;;;;;;;-142.75;100.00;76322.28;5066677;28;20449;-64
2023/08/05 01:30:16;;;;;;;6.30;3.25;;;;;;;-142.75;100.00;76330.16;5066594;28;20361;-63
2023/08/05 01:32:42;;;;;;;6.00;3.38;;;;;;;-142.75;100.00;76349.81;5066845;28;20040;-63
2023/08/05 01:35:09;;;;;;;4.95;3.00;;;;;;;-142.75;100.00;76353.78;5066679;28;20094;-63
2023/08/05 01:37:35;;;;;;;7.90;3.40;;;;;;;-142.75;100.00;76369.50;5066543;28;20032;-64
2023/08/05 01:40:00;;;;;;;8.57;3.33;;;;;;;-142.75;100.00;76369.50;5069524;28;20081;-64
2023/08/05 01:42:25;;;;;;;5.63;3.05;;;;;;;-142.75;100.00;76379.34;5069937;28;20568;-64
2023/08/05 01:44:51;;;;;;;5.15;3.00;;;;;;;-142.75;100.00;76361.63;5069926;28;20031;-64
2023/08/05 01:47:16;;;;;;;6.50;2.80;;;;;;;-142.75;100.00;76345.91;5070251;28;20056;-64
2023/08/05 01:49:41;;;;;;;10.57;3.40;;;;;;;-142.75;100.00;76330.16;5070237;28;20578;-64
2023/08/05 01:52:07;;;;;;;4.93;2.53;;;;;;;-142.75;100.00;76320.31;5069900;28;20029;-64
2023/08/05 01:54:32;;;;;;;5.07;2.67;;;;;;;-142.75;100.00;76316.38;5070038;28;20028;-64
2023/08/05 01:56:57;;;;;;;6.22;2.92;;;;;;;-142.75;100.00;76302.59;5069697;28;20031;-64
2023/08/05 01:59:23;;;;;;;4.68;2.88;;;;;;;-142.75;100.00;76300.63;5069645;28;20090;-63
2023/08/05 02:01:48;;;;;;;6.25;2.30;;;;;;;-142.75;100.00;76294.72;5069542;28;20606;-63
2023/08/05 02:04:14;;;;;;;9.00;2.65;;;;;;;-142.75;100.00;76294.72;5070305;28;20524;-64
2023/08/05 02:06:40;;;;;;;5.65;2.72;;;;;;;-142.75;100.00;76294.72;5078934;28;20051;-64
2023/08/05 02:09:06;;;;;;;5.57;2.33;;;;;;;-142.75;100.00;76292.75;5089859;28;20495;-64
2023/08/05 02:11:32;;;;;;;9.50;3.17;;;;;;;-142.75;100.00;76294.72;5088653;28;20114;-64
2023/08/05 02:13:57;;;;;;;6.28;2.30;;;;;;;-142.75;100.00;76290.78;5089617;28;20038;-64
2023/08/05 02:16:22;;;;;;;6.38;2.67;;;;;;;-142.75;100.00;76290.78;5089675;28;20495;-64
2023/08/05 02:18:51;;;;;;;5.13;2.63;;;;;;;-142.75;100.00;76288.81;5089766;28;20504;-64
2023/08/05 02:21:16;;;;;;;3.95;2.65;;;;;;;-142.75;100.00;76290.78;5080775;28;20218;-63
2023/08/05 02:23:42;;;;;;;4.75;2.10;;;;;;;-142.75;100.00;76298.66;5069306;28;20115;-63
2023/08/05 02:26:07;;;;;;;4.38;2.67;;;;;;;-142.75;100.00;76298.66;5069665;28;20448;-63
2023/08/05 02:28:32;;;;;;;3.42;2.33;;;;;;;-142.75;100.00;76302.59;5069369;28;20032;-63
2023/08/05 02:30:58;;;;;;;4.40;2.55;;;;;;;-142.75;100.00;76292.75;5069234;28;20020;-64
2023/08/05 02:33:23;;;;;;;6.22;2.55;;;;;;;-142.75;100.00;76286.84;5069741;28;20032;-64
2023/08/05 02:35:48;;;;;;;4.93;2.50;;;;;;;-142.75;100.00;76318.34;5069237;28;20050;-64
2023/08/05 02:38:14;;;;;;;6.80;2.60;;;;;;;-142.75;100.00;76316.38;5069058;28;20052;-64
2023/08/05 02:40:40;;;;;;;4.32;2.45;;;;;;;-142.75;100.00;76306.53;5068984;28;20021;-64
2023/08/05 02:43:05;;;;;;;4.97;2.85;;;;;;;-142.75;100.00;76310.47;5069059;28;20487;-64
2023/08/05 02:45:30;;;;;;;8.90;3.40;;;;;;;-142.75;100.00;76330.16;5069063;28;20052;-64
2023/08/05 02:47:56;;;;;;;5.90;3.28;;;;;;;-142.75;100.00;76369.50;5069130;28;20103;-64
2023/08/05 02:50:21;;;;;;;8.20;3.28;;;;;;;-142.75;100.00;76338.03;5068492;28;20107;-63
2023/08/05 02:52:46;;;;;;;6.38;2.75;;;;;;;-142.75;100.00;76326.22;5068628;28;20107;-64
2023/08/05 02:55:12;;;;;;;6.03;3.15;;;;;;;-142.75;100.00;76332.13;5068708;28;20111;-64
2023/08/05 02:57:37;;;;;;;5.35;2.88;;;;;;;-142.75;100.00;76341.97;5068879;28;20075;-64
2023/08/05 03:00:04;;;;;;;5.63;3.75;;;;;;;-142.75;100.00;76326.22;5068849;28;20032;-64
2023/08/05 03:02:29;;;;;;;6.22;3.40;;;;;;;-142.75;100.00;76314.41;5068853;28;20024;-64
2023/08/05 03:04:54;;;;;;;8.68;3.03;;;;;;;-142.75;100.00;76316.38;5069282;28;20029;-64
2023/08/05 03:07:20;;;;;;;6.55;3.13;;;;;;;-142.75;100.00;76310.47;5069446;28;20388;-64
2023/08/05 03:09:46;;;;;;;5.32;2.70;;;;;;;-142.75;100.00;76330.16;5068470;28;20020;-64
2023/08/05 03:12:12;;;;;;;6.57;2.78;;;;;;;-142.75;100.00;76330.16;5067885;28;20032;-64
2023/08/05 03:14:37;;;;;;;10.13;2.55;;;;;;;-142.75;100.00;76341.97;5068170;28;20020;-63
2023/08/05 03:17:02;;;;;;;6.25;2.92;;;;;;;-142.75;100.00;76324.25;5068732;28;20028;-64
2023/08/05 03:19:28;;;;;;;7.28;2.72;;;;;;;-142.75;100.00;76334.09;5068203;28;20041;-64
2023/08/05 03:21:53;;;;;;;6.72;3.13;;;;;;;-142.75;100.00;76328.19;5068462;28;20048;-63
2023/08/05 03:24:18;;;;;;;6.65;3.20;;;;;;;-142.75;100.00;76326.22;5068227;28;20062;-64
2023/08/05 03:26:44;;;;;;;5.55;2.70;;;;;;;-142.75;100.00;76318.34;5068193;28;20052;-63
2023/08/05 03:29:09;;;;;;;4.88;3.08;;;;;;;-142.75;100.00;76320.31;5068080;28;20500;-64
2023/08/05 03:31:34;;;;;;;7.75;2.58;;;;;;;-142.75;100.00;76322.28;5067917;28;20016;-63
2023/08/05 03:34:00;;;;;;;6.85;3.42;;;;;;;-142.75;100.00;76343.94;5068918;28;20420;-63
2023/08/05 03:36:25;;;;;;;6.47;3.08;;;;;;;-142.75;100.00;76318.34;5068496;28;20024;-64
2023/08/05 03:38:51;;;;;;;7.65;3.90;;;;;;;-142.75;100.00;76320.31;5068058;28;20035;-63
2023/08/05 03:41:17;;;;;;;6.95;4.10;;;;;;;-142.75;100.00;76318.34;5067605;28;20032;-63
2023/08/05 03:43:42;;;;;;;7.55;4.47;;;;;;;-142.75;100.00;76318.34;5067563;28;20024;-63
2023/08/05 03:46:08;;;;;;;13.93;5.43;;;;;;;-142.75;100.00;76318.34;5068050;28;20024;-64
2023/08/05 03:48:33;;;;;;;9.05;5.43;;;;;;;-142.75;100.00;76304.56;5067984;28;20021;-64
2023/08/05 03:50:58;;;;;;;11.75;4.95;;;;;;;-142.75;100.00;76330.16;5067708;28;20372;-64
2023/08/05 03:53:24;;;;;;;10.10;4.43;;;;;;;-142.75;100.00;76326.22;5067386;28;20051;-64
2023/08/05 03:55:49;;;;;;;5.10;3.33;;;;;;;-142.75;100.00;76322.28;5067672;28;20032;-64
2023/08/05 03:58:14;;;;;;;7.30;4.05;;;;;;;-142.75;100.00;76306.53;5067358;28;20500;-63
2023/08/05 04:00:42;;;;;;;9.15;3.95;;;;;;;-142.75;100.00;76302.59;5067291;28;20058;-64
2023/08/05 04:03:08;;;;;;;6.78;3.72;;;;;;;-142.75;100.00;76300.63;5067627;28;20668;-64
2023/08/05 04:05:33;;;;;;;9.10;4.30;;;;;;;-142.75;100.00;76302.59;5080594;28;20028;-64
2023/08/05 04:07:58;;;;;;;7.43;4.40;;;;;;;-142.75;100.00;76306.53;5087441;28;20088;-63
2023/08/05 04:10:24;;;;;;;11.80;4.60;;;;;;;-142.75;100.00;76298.66;5087507;28;20491;-63
2023/08/05 04:12:50;;;;;;;10.60;4.50;;;;;;;-142.75;100.00;76302.59;5087416;28;20550;-64
2023/08/05 04:15:17;;;;;;;8.23;4.57;;;;;;;-142.75;100.00;76294.72;5087371;28;20028;-64
2023/08/05 04:17:44;;;;;;;7.63;4.35;;;;;;;-142.75;100.00;76286.84;5087551;28;20085;-63
2023/08/05 04:20:11;;;;;;;8.80;4.53;;;;;;;-142.75;100.00;76302.59;5087385;28;20024;-64
2023/08/05 04:22:38;;;;;;;9.23;4.55;;;;;;;-142.75;100.00;76300.63;5085899;28;20050;-63
2023/08/05 04:25:04;;;;;;;8.15;5.30;;;;;;;-142.75;100.00;76314.41;5087255;28;20705;-63
2023/08/05 04:27:29;;;;;;;7.55;4.97;;;;;;;-142.75;100.00;76298.66;5087152;28;20383;-63
2023/08/05 04:29:55;;;;;;;16.38;6.15;;;;;;;-142.75;100.00;76288.81;5087378;28;20024;-63
2023/08/05 04:32:20;;;;;;;7.40;5.00;;;;;;;-142.75;100.00;76288.81;5084672;28;20505;-63
2023/08/05 04:34:46;;;;;;;10.18;5.55;;;;;;;-142.75;100.00;76284.88;5067891;28;20563;-64
2023/08/05 04:37:21;;;;;;;17.63;7.43;;;;;;;-142.75;100.00;76298.66;5068866;28;20104;-63
2023/08/05 04:39:47;;;;;;;14.80;6.85;;;;;;;-142.75;100.00;76290.78;5087068;28;20024;-64
2023/08/05 04:42:13;;;;;;;8.70;5.60;;;;;;;-142.75;100.00;76306.53;5086607;28;20038;-63
2023/08/05 04:44:42;;;;;;;9.18;5.25;;;;;;;-142.75;100.00;76310.47;5087000;28;20028;-63
2023/08/05 04:47:11;;;;;;;12.60;5.93;;;;;;;-142.75;100.00;76282.91;5087148;28;20115;-63
2023/08/05 04:49:40;;;;;;;12.98;6.40;;;;;;;-142.75;100.00;76286.84;5067169;28;20066;-62
2023/08/05 04:52:06;;;;;;;11.13;5.63;;;;;;;-142.75;100.00;76267.16;5066794;28;20036;-62
2023/08/05 04:54:43;;;;;;;12.05;5.38;;;;;;;-142.75;100.00;76267.16;5066617;28;20020;-64
2023/08/05 04:57:09;;;;;;;12.50;5.47;;;;;;;-142.75;100.00;76271.09;5067026;28;20437;-63
2023/08/05 04:59:35;;;;;;;9.55;5.72;;;;;;;-142.75;100.00;76263.22;5066742;28;20115;-63
2023/08/05 05:02:00;;;;;;;13.15;5.68;;;;;;;-142.75;100.00;76290.78;5066626;28;20438;-63
2023/08/05 05:04:26;;;;;;;9.90;5.07;;;;;;;-142.75;100.00;76265.19;5066348;28;20059;-63
2023/08/05 05:06:51;;;;;;;11.38;5.53;;;;;;;-142.75;100.00;76253.38;5066885;28;20023;-63
2023/08/05 05:09:17;;;;;;;9.68;5.63;;;;;;;-142.75;100.00;76245.50;5066609;28;20099;-63
2023/08/05 05:11:42;;;;;;;10.20;5.50;;;;;;;-142.75;100.00;76251.41;5066571;28;20020;-63
2023/08/05 05:14:07;;;;;;;11.35;5.93;;;;;;;-142.75;100.00;76245.50;5070288;28;20028;-63
2023/08/05 05:16:33;;;;;;;7.80;5.15;;;;;;;-142.75;100.00;76229.75;5070856;28;20106;-63
2023/08/05 05:18:58;;;;;;;8.90;5.65;;;;;;;-142.75;100.00;76239.59;5070512;28;20078;-63
2023/08/05 05:21:23;;;;;;;10.13;6.22;;;;;;;-142.75;100.00;76219.91;5070746;28;20636;-64
2023/08/05 05:23:49;;;;;;;6.40;4.80;;;;;;;-142.75;100.00;76223.84;5069225;28;20094;-64
2023/08/05 05:26:14;;;;;;;11.73;5.57;;;;;;;-142.75;100.00;76217.94;5070735;28;20035;-64
2023/08/05 05:28:39;;;;;;;11.65;6.25;;;;;;;-142.75;100.00;76233.69;5070428;28;20095;-64
2023/08/05 05:31:05;;;;;;;9.23;6.07;;;;;;;-142.75;100.00;76202.19;5070533;28;20020;-62
2023/08/05 05:33:30;;;;;;;9.90;5.68;;;;;;;-142.75;100.00;76194.34;5071037;28;20032;-64
2023/08/05 05:35:56;;;;;;;13.18;6.35;;;;;;;-142.75;100.00;76190.41;5070397;28;20027;-64
2023/08/05 05:38:21;;;;;;;13.45;6.35;;;;;;;-142.75;100.00;76202.19;5069962;28;20024;-64
2023/08/05 05:40:46;;;;;;;11.10;6.10;;;;;;;-142.75;100.00;76202.19;5070254;28;20048;-63
2023/08/05 05:43:12;;;;;;;9.40;6.28;;;;;;;-142.75;100.00;76212.03;5070159;28;20080;-63
2023/08/05 05:45:38;;;;;;;11.50;5.68;;;;;;;-142.75;100.00;76186.47;5070201;28;20667;-64
2023/08/05 05:48:03;;;;;;;10.07;5.63;;;;;;;-142.75;100.00;76170.72;5070151;28;20020;-64
2023/08/05 05:50:30;;;;;;;12.15;5.57;;;;;;;-142.75;100.00;76174.66;5070223;28;20071;-63
2023/08/05 05:52:55;;;;;;;14.80;5.22;;;;;;;-142.75;100.00;76176.63;5069783;28;20056;-64
2023/08/05 05:55:20;;;;;;;9.20;5.13;;;;;;;-142.75;100.00;76190.41;5070079;28;20511;-64
2023/08/05 05:57:46;;;;;;;8.27;4.40;;;;;;;-142.75;100.00;76188.44;5070213;28;20586;-64
2023/08/05 06:00:12;;;;;;;11.45;5.10;;;;;;;-142.75;100.00;76208.09;5070084;28;20028;-64
2023/08/05 06:02:37;;;;;;;12.73;5.00;;;;;;;-142.75;100.00;76243.53;5069702;28;20111;-63
2023/08/05 06:05:03;;;;;;;8.48;4.40;;;;;;;-142.75;100.00;76245.50;5070444;28;20036;-64
2023/08/05 06:07:28;;;;;;;9.52;4.82;;;;;;;-142.75;100.00;76229.75;5069537;28;20124;-64
2023/08/05 06:09:54;;;;;;;9.82;4.22;;;;;;;-142.75;100.00;76223.84;5069828;28;20107;-64
2023/08/05 06:12:22;;;;;;;10.68;4.72;;;;;;;-142.75;100.00;76219.91;5069538;28;20040;-64
2023/08/05 06:14:48;;;;;;;13.27;5.15;;;;;;;-142.75;100.00;76237.63;5069707;28;20056;-64
2023/08/05 06:17:13;;;;;;;7.15;4.38;;;;;;;-142.75;100.00;76229.75;5069613;28;20082;-64
2023/08/05 06:19:38;;;;;;;7.75;4.20;;;;;;;-142.75;100.00;76237.63;5069426;28;20028;-64
2023/08/05 06:22:04;;;;;;;7.40;4.53;;;;;;;-142.75;100.00;76269.13;5069184;28;20024;-64
2023/08/05 06:24:30;;;;;;;7.38;3.97;;;;;;;-142.75;100.00;76239.59;5068756;28;20107;-64
2023/08/05 06:26:55;;;;;;;10.60;4.30;;;;;;;-142.75;100.00;76255.34;5069445;28;20103;-64
2023/08/05 06:29:20;;;;;;;7.45;3.97;;;;;;;-142.75;100.00;76261.25;5069278;28;20056;-64
2023/08/05 06:31:46;;;;;;;11.73;4.88;;;;;;;-142.75;100.00;76247.47;5069487;28;20055;-64
2023/08/05 06:34:11;;;;;;;8.13;4.22;;;;;;;-142.75;100.00;76239.59;5070207;28;20089;-64
2023/08/05 06:36:36;;;;;;;9.20;4.65;;;;;;;-142.75;100.00;76247.47;5069172;28;20094;-64
2023/08/05 06:39:03;;;;;;;11.38;4.68;;;;;;;-142.75;100.00;76231.72;5067752;28;20106;-65
2023/08/05 06:41:28;;;;;;;11.05;5.50;;;;;;;-142.75;100.00;76225.81;5068984;28;20028;-63
2023/08/05 06:43:54;;;;;;;9.95;5.13;;;;;;;-142.75;100.00;76241.56;5069074;28;20284;-63
2023/08/05 06:46:19;;;;;;;13.77;5.80;;;;;;;-142.75;100.00;76223.84;5068935;28;20038;-64
2023/08/05 06:48:45;;;;;;;13.75;5.65;;;;;;;-142.75;100.00;76202.19;5069133;28;20055;-64
2023/08/05 06:51:10;;;;;;;12.93;6.38;;;;;;;-142.75;100.00;76204.16;5069000;28;20028;-64
2023/08/05 06:53:39;;;;;;;11.18;6.18;;;;;;;-142.75;100.00;76219.91;5068460;28;20058;-62
2023/08/05 06:56:05;;;;;;;11.77;6.20;;;;;;;-142.75;100.00;76198.28;5087449;28;20034;-65
2023/08/05 06:58:30;;;;;;;12.80;6.97;;;;;;;-142.75;100.00;76208.09;5088479;28;20107;-63
2023/08/05 07:00:56;;;;;;;12.30;6.45;;;;;;;-142.75;100.00;76180.56;5088249;28;20439;-63
2023/08/05 07:03:23;;;;;;;14.63;6.53;;;;;;;-142.75;100.00;76172.69;5088362;28;20046;-63
2023/08/05 07:05:48;;;;;;;12.07;6.43;;;;;;;-142.75;100.00;76186.47;5088434;28;20107;-63
2023/08/05 07:08:14;;;;;;;17.23;7.00;;;;;;;-142.75;100.00;76198.28;5088469;28;20107;-63
2023/08/05 07:10:39;;;;;;;11.50;6.18;;;;;;;-142.75;100.00;76188.44;5087579;28;20405;-63
2023/08/05 07:13:06;;;;;;;11.63;6.78;;;;;;;-142.75;100.00;76210.06;5086948;28;20161;-64
2023/08/05 07:15:36;;;;;;;10.68;6.72;;;;;;;-142.75;100.00;76192.38;5087929;28;20027;-65
2023/08/05 07:18:02;;;;;;;11.98;6.63;;;;;;;-142.75;100.00;76215.97;5088612;28;20106;-63
2023/08/05 07:20:27;;;;;;;13.23;6.65;;;;;;;-142.75;100.00;76223.84;5087915;28;20220;-65
2023/08/05 07:22:53;;;;;;;10.98;6.63;;;;;;;-142.75;100.00;76190.41;5088400;28;20031;-65
2023/08/05 07:25:18;;;;;;;10.50;6.28;;;;;;;-142.75;100.00;76188.44;5088412;28;20077;-65
2023/08/05 07:27:43;;;;;;;10.77;6.65;;;;;;;-142.75;100.00;76170.72;5088413;28;20066;-65
2023/08/05 07:30:09;;;;;;;12.27;6.45;;;;;;;-142.75;100.00;76182.53;5088297;28;20051;-65
2023/08/05 07:32:34;;;;;;;11.52;6.50;;;;;;;-142.75;100.00;76188.44;5088004;28;20024;-66
2023/08/05 07:35:00;;;;;;;12.18;5.97;;;;;;;-142.75;100.00;76178.59;5088582;28;20024;-65
2023/08/05 07:37:25;;;;;;;9.27;5.50;;;;;;;-142.75;100.00;76182.53;5087322;28;20456;-64
2023/08/05 07:39:51;;;;;;;11.38;6.03;;;;;;;-142.75;100.00;76164.81;5088202;28;20027;-65
2023/08/05 07:42:19;;;;;;;12.23;6.93;;;;;;;-142.75;100.00;76162.84;5087533;28;20392;-65
2023/08/05 07:44:46;;;;;;;13.77;6.47;;;;;;;-142.75;100.00;76168.75;5087626;28;20551;-65
2023/08/05 07:47:11;;;;;;;13.18;6.18;;;;;;;-142.75;100.00;76176.63;5087392;28;20024;-65
2023/08/05 07:49:37;;;;;;;11.98;7.03;;;;;;;-142.75;100.00;76151.03;5087213;28;20526;-65
2023/08/05 07:52:07;;;;;;;12.73;5.95;;;;;;;-142.75;100.00;76154.97;5087062;28;20032;-66
2023/08/05 07:54:33;;;;;;;15.18;5.80;;;;;;;-142.75;100.00;76145.13;5068831;28;20035;-65
2023/08/05 07:56:58;;;;;;;11.75;5.30;;;;;;;-142.75;100.00;76137.25;5067238;28;20020;-64
2023/08/05 07:59:25;;;;;;;10.48;5.20;;;;;;;-142.75;100.00;76097.88;5067015;28;20512;-65
2023/08/05 08:01:52;;;;;;;10.70;5.80;;;;;;;-142.75;100.00;76113.63;5066651;28;20052;-65
2023/08/05 08:04:18;;;;;;;10.15;5.15;;;;;;;-142.75;100.00;76121.50;5085731;28;20023;-65
2023/08/05 08:06:45;;;;;;;8.25;4.47;;;;;;;-142.75;100.00;76097.88;5066898;28;20119;-65
2023/08/05 08:09:11;;;;;;;8.00;4.65;;;;;;;-142.75;100.00;76095.91;5066863;28;20026;-65
2023/08/05 08:11:36;;;;;;;8.50;4.90;;;;;;;-142.75;100.00;76074.25;5066890;28;20523;-64
2023/08/05 08:14:04;;;;;;;11.95;5.05;;;;;;;-142.75;100.00;76086.06;5066902;28;20074;-65
2023/08/05 08:16:30;;;;;;;7.75;5.15;;;;;;;-142.75;100.00;76097.88;5067870;28;20531;-65
2023/08/05 08:18:55;;;;;;;7.93;4.80;;;;;;;-142.75;100.00;76090.00;5086903;28;20044;-66
2023/08/05 08:21:20;;;;;;;11.80;5.57;;;;;;;-142.75;100.00;76095.91;5086599;28;20023;-65
2023/08/05 08:23:46;;;;;;;11.52;5.53;;;;;;;-142.75;100.00;76101.81;5086776;28;20027;-66
2023/08/05 08:26:11;;;;;;;8.90;5.00;;;;;;;-142.75;100.00;76080.16;5086769;28;20093;-65
2023/08/05 08:28:36;;;;;;;9.50;5.53;;;;;;;-142.75;100.00;76074.25;5086839;28;20095;-65
2023/08/05 08:31:02;;;;;;;12.10;6.00;;;;;;;-142.75;100.00;76074.25;5086749;28;20031;-66
2023/08/05 08:33:28;;;;;;;11.52;5.53;;;;;;;-142.75;100.00;76070.34;5086478;28;20027;-66
2023/08/05 08:35:53;;;;;;;10.40;6.15;;;;;;;-142.75;100.00;76062.47;5086736;28;20032;-67
2023/08/05 08:38:19;;;;;;;11.35;5.78;;;;;;;-142.75;100.00;76062.47;5086597;28;20543;-66
2023/08/05 08:40:49;;;;;;;8.90;4.63;;;;;;;-142.75;100.00;76040.81;5086265;28;20034;-65
2023/08/05 08:43:18;;;;;;;9.60;5.32;;;;;;;-142.75;100.00;76005.38;5086669;28;20081;-66
2023/08/05 08:45:52;;;;;;;12.65;5.85;;;;;;;-142.75;100.00;75977.81;5086435;28;20032;-65
2023/08/05 08:48:18;;;;;;;9.38;5.90;;;;;;;-142.75;100.00;75979.78;5086141;28;20376;-65
2023/08/05 08:50:44;;;;;;;10.43;6.00;;;;;;;-142.75;100.00;76009.31;5070662;28;20040;-65
2023/08/05 08:53:13;;;;;;;12.32;6.50;;;;;;;-142.75;100.00;76030.97;5072121;28;20038;-65
2023/08/05 08:55:42;;;;;;;11.23;6.50;;;;;;;-142.75;100.00;76023.09;5077144;28;20027;-65
2023/08/05 08:58:08;;;;;;;10.43;5.93;;;;;;;-142.75;100.00;76023.09;5069278;28;20029;-65
2023/08/05 09:00:34;;;;;;;15.45;6.35;;;;;;;-142.75;100.00;76015.22;5070471;28;20560;-64
2023/08/05 09:03:00;;;;;;;12.15;6.07;;;;;;;-142.75;100.00;76009.31;5072188;28;20043;-64
2023/08/05 09:05:41;;;;;;;10.80;6.20;;;;;;;-142.75;100.00;75979.78;5074465;28;20496;-62
2023/08/05 09:08:07;;;;;;;10.02;5.95;;;;;;;-142.75;100.00;75967.97;5067557;28;20021;-64
2023/08/05 09:10:32;;;;;;;12.15;6.18;;;;;;;-142.75;100.00;75946.34;5067420;28;20033;-64
2023/08/05 09:12:58;;;;;;;9.50;4.97;;;;;;;-142.75;100.00;75971.91;5066991;28;20059;-63
2023/08/05 09:15:33;;;;;;;13.02;7.32;;;;;;;-142.75;100.00;75940.44;5067616;28;20518;-64
2023/08/05 09:18:00;;;;;;;7.72;5.35;;;;;;;-142.75;100.00;75922.72;5085291;28;20038;-64
2023/08/05 09:20:26;;;;;;;10.13;6.25;;;;;;;-142.75;100.00;75944.38;5081152;28;20052;-64
2023/08/05 09:22:56;;;;;;;8.48;4.85;;;;;;;-142.75;100.00;75966.00;5070946;28;20484;-64
2023/08/05 09:25:22;;;;;;;7.07;3.92;;;;;;;-142.75;100.00;76001.44;5069173;28;20513;-63
2023/08/05 09:27:50;;;;;;;10.73;5.07;;;;;;;-142.75;100.00;76017.19;5074352;28;20460;-63
2023/08/05 09:30:17;;;;;;;6.82;4.35;;;;;;;-142.75;100.00;75993.56;5078094;28;20360;-64
2023/08/05 09:32:44;;;;;;;8.88;4.43;;;;;;;-142.75;100.00;75991.59;5075912;28;20025;-64
2023/08/05 09:35:10;;;;;;;8.90;4.90;;;;;;;-142.75;100.00;76007.34;5081550;28;20127;-64
2023/08/05 09:37:38;;;;;;;7.80;4.72;;;;;;;-142.75;100.00;76017.19;5083827;28;20063;-65
2023/08/05 09:40:15;;;;;;;7.45;4.93;;;;;;;-142.75;100.00;75995.53;5074003;28;20111;-64
2023/08/05 09:42:41;;;;;;;9.32;5.22;;;;;;;-142.75;100.00;75995.53;5072517;28;20120;-64
2023/08/05 09:45:09;;;;;;;7.25;5.07;;;;;;;-142.75;100.00;75969.94;5074623;28;20031;-63
2023/08/05 09:47:35;;;;;;;9.63;5.50;;;;;;;-142.75;100.00;75975.84;5069784;28;20388;-63
2023/08/05 09:50:04;;;;;;;10.05;4.95;;;;;;;-142.75;100.00;75985.69;5068697;28;20023;-63
2023/08/05 09:52:33;;;;;;;9.70;4.95;;;;;;;-142.75;100.00;75964.03;5073004;28;20107;-64
2023/08/05 09:55:07;;;;;;;9.88;4.47;;;;;;;-142.75;100.00;75932.56;5074956;28;20025;-64
2023/08/05 09:57:33;;;;;;;9.40;4.97;;;;;;;-142.75;100.00;75926.66;5067767;28;20028;-64
2023/08/05 09:59:59;;;;;;;7.43;4.20;;;;;;;-142.75;100.00;75928.63;5073884;28;20043;-64
2023/08/05 10:02:26;;;;;;;9.90;2.92;;;;;;;-142.75;100.00;75973.88;5074932;28;20028;-64
2023/08/05 10:04:53;;;;;;;3.55;1.63;;;;;;;-142.75;100.00;75999.47;5081270;28;20036;-64
2023/08/05 10:07:25;;;;;;;3.30;1.52;;;;;;;-142.75;100.00;76013.25;5076899;28;20052;-64
2023/08/05 10:09:52;;;;;;;3.17;1.50;;;;;;;-142.75;100.00;75991.59;5076259;28;20444;-64
2023/08/05 10:12:21;;;;;;;4.20;1.15;;;;;;;-142.75;100.00;75962.09;5078914;28;20024;-64
2023/08/05 10:14:48;;;;;;;2.83;1.70;;;;;;;-142.75;100.00;76030.97;5087729;28;20111;-65
2023/08/05 10:17:14;;;;;;;5.32;2.97;;;;;;;-142.75;100.00;76009.31;5079283;28;20032;-64
2023/08/05 10:19:40;;;;;;;3.22;1.30;;;;;;;-142.75;100.00;76011.28;5087660;28;20118;-64
2023/08/05 10:22:11;;;;;;;3.55;1.52;;;;;;;-142.75;100.00;75989.63;5083642;28;20020;-64
2023/08/05 10:24:54;;;;;;;4.15;1.77;;;;;;;-142.75;100.00;75997.50;5083620;28;20072;-64
2023/08/05 10:27:44;;;;;;;4.32;1.90;;;;;;;-142.75;100.00;75969.94;5084394;28;20027;-64
2023/08/05 10:30:09;;;;;;;5.72;2.05;;;;;;;-142.75;100.00;75967.97;5079356;28;20046;-63
2023/08/05 10:32:47;;;;;;;4.35;1.85;;;;;;;-142.75;100.00;75975.84;5077824;28;20492;-64
2023/08/05 10:35:27;;;;;;;5.93;2.10;;;;;;;-142.75;100.00;75997.50;5083821;28;20028;-63
2023/08/05 10:38:21;;;;;;;5.40;1.70;;;;;;;-142.75;100.00;75991.59;5074045;28;20055;-64
2023/08/05 10:41:02;;;;;;;4.70;1.35;;;;;;;-142.75;100.00;75995.53;5083265;28;20028;-63
2023/08/05 10:43:30;;;;;;;3.35;1.52;;;;;;;-142.75;100.00;75971.91;5081689;28;20105;-64
2023/08/05 10:45:57;;;;;;;4.13;1.90;;;;;;;-142.75;100.00;75977.81;5080063;28;20024;-64
2023/08/05 10:48:30;;;;;;;4.13;1.92;;;;;;;-142.75;100.00;75964.03;5084662;28;20020;-64
2023/08/05 10:50:57;;;;;;;5.97;1.77;;;;;;;-142.75;100.00;75995.53;5080925;28;20553;-64
2023/08/05 10:53:22;;;;;;;4.45;1.90;;;;;;;-142.75;100.00;76013.25;5082092;28;20036;-64
2023/08/05 10:55:55;;;;;;;3.90;1.80;;;;;;;-142.75;100.00;76030.97;5082774;28;20441;-63
2023/08/05 10:58:22;;;;;;;3.35;1.73;;;;;;;-142.75;100.00;76017.19;5084145;28;20020;-64
2023/08/05 11:00:58;;;;;;;5.32;2.00;;;;;;;-142.75;100.00;76009.31;5081401;28;20032;-64
2023/08/05 11:03:29;;;;;;;5.93;2.22;;;;;;;-142.75;100.00;76007.34;5083533;28;20464;-64
2023/08/05 11:05:55;;;;;;;3.55;1.80;;;;;;;-142.75;100.00;75995.53;5074737;28;20024;-64